createdAt,value
2022-11-04T00:00:13.500Z,15.51
2022-11-04T00:02:41.759Z,15.58
2022-11-04T00:05:10.443Z,15.59
2022-11-04T00:07:57.797Z,15.61
2022-11-04T00:10:45.429Z,15.54
2022-11-04T00:13:13.029Z,15.52
2022-11-04T00:15:58.988Z,15.58
2022-11-04T00:18:26.594Z,15.62
2022-11-04T00:21:15.986Z,15.61
2022-11-04T00:24:02.385Z,15.55
2022-11-04T00:26:49.307Z,15.58
2022-11-04T00:29:17.722Z,15.52
2022-11-04T00:32:04.343Z,15.49
2022-11-04T00:34:32.418Z,15.41
2022-11-04T00:37:03.015Z,15.53
2022-11-04T00:39:30.642Z,15.45
2022-11-04T00:41:58.274Z,15.47
2022-11-04T00:44:25.916Z,15.53
2022-11-04T00:46:53.555Z,15.43
2022-11-04T00:49:21.119Z,15.49
2022-11-04T00:51:48.760Z,15.53
2022-11-04T00:54:16.613Z,15.57
2022-11-04T00:56:44.648Z,15.66
2022-11-04T00:59:14.544Z,15.67
2022-11-04T01:01:42.546Z,15.76
2022-11-04T01:04:10.146Z,15.76
2022-11-04T01:06:38.086Z,15.77
2022-11-04T01:09:08.679Z,15.65
2022-11-04T01:11:36.732Z,15.73
2022-11-04T01:14:05.257Z,15.79
2022-11-04T01:16:33.408Z,15.76
2022-11-04T01:19:01.405Z,15.71
2022-11-04T01:21:29.374Z,15.77
2022-11-04T01:23:57.431Z,15.82
2022-11-04T01:26:26.470Z,15.73
2022-11-04T01:28:55.762Z,15.70
2022-11-04T01:31:26.067Z,15.61
2022-11-04T01:33:54.963Z,15.68
2022-11-04T01:36:24.188Z,15.67
2022-11-04T01:38:52.488Z,15.68
2022-11-04T01:41:23.564Z,15.70
2022-11-04T01:44:03.349Z,15.68
2022-11-04T01:46:44.368Z,15.64
2022-11-04T01:49:43.316Z,15.71
2022-11-04T01:52:17.179Z,15.73
2022-11-04T01:54:48.434Z,15.70
2022-11-04T01:57:21.344Z,15.71
2022-11-04T01:59:48.922Z,15.77
2022-11-04T02:02:16.749Z,15.77
2022-11-04T02:04:45.124Z,15.79
2022-11-04T02:07:13.539Z,15.70
2022-11-04T02:09:42.480Z,15.75
2022-11-04T02:12:28.209Z,15.78
2022-11-04T02:14:57.546Z,15.75
2022-11-04T02:17:46.846Z,15.82
2022-11-04T02:20:29.398Z,15.87
2022-11-04T02:23:45.960Z,15.64
2022-11-04T02:26:58.257Z,15.60
2022-11-04T02:29:38.487Z,15.59
2022-11-04T02:32:18.161Z,15.61
2022-11-04T02:35:10.910Z,15.69
2022-11-04T02:40:47.852Z,15.67
2022-11-04T02:43:36.467Z,15.77
2022-11-04T02:46:17.086Z,15.88
2022-11-04T02:49:01.351Z,15.93
2022-11-04T02:51:34.529Z,15.89
2022-11-04T02:54:11.445Z,15.84
2022-11-04T02:56:45.530Z,15.77
2022-11-04T02:59:19.923Z,15.89
2022-11-04T03:01:52.811Z,15.96
2022-11-04T03:04:30.166Z,16.01
2022-11-04T03:07:01.330Z,15.92
2022-11-04T03:09:31.159Z,16.01
2022-11-04T03:12:06.981Z,15.97
2022-11-04T03:14:43.435Z,15.96
2022-11-04T03:17:20.648Z,16.01
2022-11-04T03:19:55.122Z,16.01
2022-11-04T03:22:29.524Z,16.03
2022-11-04T03:24:57.896Z,16.00
2022-11-04T03:27:33.545Z,15.96
2022-11-04T03:30:04.062Z,16.01
2022-11-04T03:32:39.374Z,16.07
2022-11-04T03:35:08.633Z,16.08
2022-11-04T03:37:36.752Z,16.16
2022-11-04T03:40:05.040Z,16.16
2022-11-04T03:42:35.240Z,16.09
2022-11-04T03:45:03.348Z,16.18
2022-11-04T03:47:31.919Z,16.19
2022-11-04T03:50:11.177Z,16.15
2022-11-04T03:52:39.582Z,16.26
2022-11-04T03:55:10.380Z,16.22
2022-11-04T03:58:15.609Z,16.32
2022-11-04T04:00:52.284Z,16.33
2022-11-04T04:03:31.966Z,16.18
2022-11-04T04:06:16.038Z,16.21
2022-11-04T04:08:50.431Z,16.28
2022-11-04T04:11:21.087Z,16.24
2022-11-04T04:13:58.422Z,16.38
2022-11-04T04:16:32.571Z,16.34
2022-11-04T04:19:13.507Z,16.30
2022-11-04T04:21:54.449Z,16.18
2022-11-04T04:24:45.352Z,16.19
2022-11-04T04:27:32.452Z,16.15
2022-11-04T04:30:05.801Z,16.19
2022-11-04T04:32:39.524Z,16.15
2022-11-04T04:35:28.079Z,16.12
2022-11-04T04:38:21.057Z,16.15
2022-11-04T04:41:21.090Z,16.21
2022-11-04T04:44:07.110Z,16.21
2022-11-04T04:46:37.525Z,16.18
2022-11-04T04:49:09.579Z,16.21
2022-11-04T04:51:42.780Z,16.25
2022-11-04T04:54:10.486Z,16.31
2022-11-04T04:56:38.969Z,16.19
2022-11-04T04:59:06.721Z,16.22
2022-11-04T05:01:34.445Z,16.26
2022-11-04T05:04:02.697Z,16.22
2022-11-04T05:06:30.298Z,16.22
2022-11-04T05:08:58.300Z,16.20
2022-11-04T05:11:27.404Z,16.26
2022-11-04T05:13:55.578Z,16.14
2022-11-04T05:16:23.757Z,16.10
2022-11-04T05:18:54.028Z,16.12
2022-11-04T05:21:21.791Z,16.18
2022-11-04T05:23:49.702Z,16.18
2022-11-04T05:26:18.307Z,16.23
2022-11-04T05:28:45.955Z,16.26
2022-11-04T05:31:13.672Z,16.16
2022-11-04T05:33:41.342Z,16.14
2022-11-04T05:36:11.221Z,16.18
2022-11-04T05:38:39.393Z,16.27
2022-11-04T05:41:08.611Z,16.31
2022-11-04T05:43:36.436Z,16.26
2022-11-04T05:46:04.506Z,16.37
2022-11-04T05:48:37.708Z,16.35
2022-11-04T05:51:08.291Z,16.30
2022-11-04T05:53:35.834Z,16.43
2022-11-04T05:56:03.763Z,16.26
2022-11-04T05:58:31.426Z,16.21
2022-11-04T06:01:32.758Z,16.34
2022-11-04T06:04:01.053Z,16.30
2022-11-04T06:06:31.634Z,16.26
2022-11-04T06:09:00.535Z,16.30
2022-11-04T06:11:30.342Z,16.19
2022-11-04T06:13:58.725Z,16.23
2022-11-04T06:16:26.750Z,16.26
2022-11-04T06:18:54.565Z,16.34
2022-11-04T06:21:28.538Z,16.28
2022-11-04T06:23:57.694Z,16.00
2022-11-04T06:26:33.053Z,16.04
2022-11-04T06:29:00.605Z,15.96
2022-11-04T06:31:28.185Z,15.82
2022-11-04T06:33:55.942Z,15.83
2022-11-04T06:36:23.954Z,15.66
2022-11-04T06:38:52.450Z,15.59
2022-11-04T06:41:20.550Z,15.55
2022-11-04T06:43:48.159Z,15.60
2022-11-04T06:46:36.200Z,15.48
2022-11-04T06:49:06.410Z,15.30
2022-11-04T06:51:34.867Z,15.31
2022-11-04T06:54:02.502Z,15.30
2022-11-04T06:56:30.420Z,15.06
2022-11-04T06:58:58.524Z,14.96
2022-11-04T07:01:30.622Z,14.88
2022-11-04T07:04:00.055Z,14.78
2022-11-04T07:06:31.687Z,14.70
2022-11-04T07:09:01.491Z,14.44
2022-11-04T07:11:32.279Z,14.42
2022-11-04T07:13:59.846Z,14.23
2022-11-04T07:16:27.517Z,13.94
2022-11-04T07:18:55.637Z,13.72
2022-11-04T07:21:23.799Z,13.44
2022-11-04T07:23:51.607Z,13.47
2022-11-04T07:26:20.273Z,13.24
2022-11-04T07:28:47.830Z,13.13
2022-11-04T07:31:16.228Z,13.08
2022-11-04T07:33:44.282Z,13.11
2022-11-04T07:36:13.423Z,13.13
2022-11-04T07:38:40.889Z,12.96
2022-11-04T07:41:08.581Z,12.98
2022-11-04T07:43:36.564Z,12.92
2022-11-04T07:46:07.472Z,13.03
2022-11-04T07:48:36.752Z,13.16
2022-11-04T07:51:07.870Z,13.14
2022-11-04T07:53:35.960Z,13.17
2022-11-04T07:56:08.638Z,13.19
2022-11-04T07:58:36.155Z,13.30
2022-11-04T08:01:08.468Z,13.47
2022-11-04T08:03:36.904Z,13.69
2022-11-04T08:06:06.720Z,13.80
2022-11-04T08:08:35.214Z,13.84
2022-11-04T08:11:15.874Z,14.12
2022-11-04T08:13:46.418Z,14.34
2022-11-04T08:16:20.513Z,14.67
2022-11-04T08:18:51.495Z,14.97
2022-11-04T08:21:20.869Z,15.17
2022-11-04T08:23:48.512Z,15.33
2022-11-04T08:26:18.472Z,15.76
2022-11-04T08:28:46.340Z,15.48
2022-11-04T08:31:13.786Z,15.44
2022-11-04T08:33:42.677Z,15.35
2022-11-04T08:36:18.289Z,15.44
2022-11-04T08:38:46.724Z,16.00
2022-11-04T08:41:16.807Z,16.43
2022-11-04T08:43:44.712Z,16.77
2022-11-04T08:46:14.155Z,16.62
2022-11-04T08:48:43.077Z,16.81
2022-11-04T08:51:23.018Z,16.94
2022-11-04T08:53:50.675Z,17.02
2022-11-04T08:56:21.799Z,16.94
2022-11-04T08:58:50.275Z,16.95
2022-11-04T09:01:19.248Z,17.54
2022-11-04T09:03:47.441Z,18.08
2022-11-04T09:06:19.662Z,17.94
2022-11-04T09:08:47.738Z,18.00
2022-11-04T09:11:16.480Z,19.26
2022-11-04T09:13:44.447Z,19.04
2022-11-04T09:16:14.200Z,19.02
2022-11-04T09:18:42.206Z,19.16
2022-11-04T09:21:11.085Z,19.61
2022-11-04T09:23:39.103Z,19.45
2022-11-04T09:26:15.433Z,20.04
2022-11-04T09:28:43.931Z,19.84
2022-11-04T09:31:14.640Z,19.96
2022-11-04T09:33:42.994Z,19.92
2022-11-04T09:36:12.261Z,20.27
2022-11-04T09:38:42.092Z,20.69
2022-11-04T09:41:27.649Z,20.31
2022-11-04T09:44:28.683Z,19.84
2022-11-04T09:47:00.682Z,19.82
2022-11-04T09:49:37.151Z,19.41
2022-11-04T09:52:39.248Z,19.94
2022-11-04T09:55:19.631Z,19.72
2022-11-04T09:57:56.434Z,20.81
2022-11-04T10:00:24.881Z,20.66
2022-11-04T10:03:40.532Z,19.99
2022-11-04T10:06:19.940Z,18.45
2022-11-04T10:08:57.313Z,17.24
2022-11-04T10:11:45.524Z,16.93
2022-11-04T10:14:51.187Z,16.50
2022-11-04T10:17:52.100Z,16.07
2022-11-04T10:20:26.124Z,16.03
2022-11-04T10:23:08.765Z,15.99
2022-11-04T10:25:39.412Z,16.09
2022-11-04T10:28:13.058Z,16.30
2022-11-04T10:30:42.865Z,16.14
2022-11-04T10:33:22.851Z,16.32
2022-11-04T10:35:57.576Z,16.31
2022-11-04T10:38:30.977Z,16.25
2022-11-04T10:41:01.690Z,16.12
2022-11-04T10:43:37.722Z,16.14
2022-11-04T10:46:20.752Z,16.02
2022-11-04T10:48:56.422Z,15.97
2022-11-04T10:51:24.801Z,16.18
2022-11-04T10:53:57.102Z,16.19
2022-11-04T10:56:36.221Z,16.08
2022-11-04T10:59:39.404Z,15.85
2022-11-04T11:02:10.229Z,15.95
2022-11-04T11:04:47.863Z,15.92
2022-11-04T11:07:22.932Z,15.85
2022-11-04T11:09:57.208Z,16.24
2022-11-04T11:12:51.634Z,16.48
2022-11-04T11:15:30.196Z,16.84
2022-11-04T11:18:08.516Z,16.93
2022-11-04T11:20:38.128Z,18.24
2022-11-04T11:23:10.135Z,19.54
2022-11-04T11:25:45.268Z,20.59
2022-11-04T11:28:22.633Z,21.61
2022-11-04T11:30:56.094Z,22.05
2022-11-04T11:33:30.027Z,22.13
2022-11-04T11:36:11.966Z,22.22
2022-11-04T11:38:53.051Z,22.26
2022-11-04T11:41:25.584Z,22.41
2022-11-04T11:43:56.092Z,22.42
2022-11-04T11:46:26.398Z,23.17
2022-11-04T11:49:01.317Z,22.84
2022-11-04T11:51:33.563Z,23.52
2022-11-04T11:54:33.710Z,23.68
2022-11-04T11:57:25.342Z,23.63
2022-11-04T12:02:55.951Z,24.10
2022-11-04T12:09:18.383Z,23.96
2022-11-04T12:12:22.627Z,23.34
2022-11-04T12:15:06.802Z,23.65
2022-11-04T12:18:09.785Z,23.53
2022-11-04T12:20:52.038Z,24.43
2022-11-04T12:23:22.192Z,25.43
2022-11-04T12:26:08.030Z,26.01
2022-11-04T12:29:00.628Z,25.66
2022-11-04T12:31:37.522Z,25.93
2022-11-04T12:34:09.210Z,25.51
2022-11-04T12:36:44.204Z,25.15
2022-11-04T12:39:39.497Z,24.84
2022-11-04T12:42:21.459Z,23.83
2022-11-04T12:45:16.559Z,25.03
2022-11-04T12:47:46.330Z,24.61
2022-11-04T12:50:36.145Z,26.19
2022-11-04T12:53:27.199Z,25.48
2022-11-04T12:56:10.332Z,25.14
2022-11-04T12:59:11.428Z,25.02
2022-11-04T13:01:45.180Z,25.39
2022-11-04T13:04:47.374Z,25.97
2022-11-04T13:07:29.188Z,26.58
2022-11-04T13:10:00.553Z,26.71
2022-11-04T13:12:37.094Z,26.27
2022-11-04T13:15:16.552Z,26.49
2022-11-04T13:17:46.599Z,27.84
2022-11-04T13:20:23.701Z,28.19
2022-11-04T13:22:56.673Z,28.69
2022-11-04T13:25:53.038Z,28.50
2022-11-04T13:28:22.184Z,27.52
2022-11-04T13:30:58.466Z,27.92
2022-11-04T13:33:46.828Z,28.12
2022-11-04T13:36:25.702Z,28.83
2022-11-04T13:38:57.307Z,29.18
2022-11-04T13:41:49.589Z,29.90
2022-11-04T13:44:36.225Z,29.42
2022-11-04T13:47:17.884Z,29.93
2022-11-04T13:49:55.555Z,30.41
2022-11-04T13:52:28.346Z,30.61
2022-11-04T13:54:59.793Z,32.22
2022-11-04T13:57:29.620Z,32.12
2022-11-04T14:00:15.217Z,31.87
2022-11-04T14:02:58.188Z,31.35
2022-11-04T14:05:40.039Z,32.53
2022-11-04T14:08:11.980Z,32.64
2022-11-04T14:10:42.480Z,32.13
2022-11-04T14:13:29.640Z,33.16
2022-11-04T14:16:17.533Z,34.30
2022-11-04T14:18:50.598Z,33.73
2022-11-04T14:21:22.058Z,33.13
2022-11-04T14:23:56.460Z,33.66
2022-11-04T14:26:50.325Z,34.72
2022-11-04T14:29:25.256Z,33.77
2022-11-04T14:31:56.987Z,33.43
2022-11-04T14:34:31.111Z,33.37
2022-11-04T14:37:06.533Z,33.74
2022-11-04T14:39:40.365Z,33.69
2022-11-04T14:42:13.541Z,32.28
2022-11-04T14:44:50.050Z,31.39
2022-11-04T14:47:29.886Z,27.54
2022-11-04T14:50:02.695Z,25.05
2022-11-04T14:52:35.499Z,23.13
2022-11-04T14:55:03.841Z,21.98
2022-11-04T14:57:38.221Z,21.51
2022-11-04T15:00:32.100Z,20.81
2022-11-04T15:03:02.696Z,20.37
2022-11-04T15:05:33.502Z,19.60
2022-11-04T15:08:01.108Z,19.15
2022-11-04T15:10:29.272Z,18.85
2022-11-04T15:13:02.330Z,18.75
2022-11-04T15:15:39.831Z,18.59
2022-11-04T15:18:15.916Z,18.36
2022-11-04T15:20:49.996Z,18.26
2022-11-04T15:23:28.242Z,18.10
2022-11-04T15:25:57.570Z,17.88
2022-11-04T15:28:36.330Z,17.49
2022-11-04T15:31:13.144Z,17.34
2022-11-04T15:33:46.190Z,17.29
2022-11-04T15:36:29.786Z,17.27
2022-11-04T15:39:24.391Z,17.17
2022-11-04T15:42:16.402Z,17.12
2022-11-04T15:44:50.750Z,17.08
2022-11-04T15:47:18.365Z,17.06
2022-11-04T15:49:47.918Z,17.05
2022-11-04T15:52:35.634Z,16.89
2022-11-04T15:55:05.405Z,16.73
2022-11-04T15:57:38.185Z,16.63
2022-11-04T16:00:07.770Z,16.57
2022-11-04T16:02:50.295Z,16.48
2022-11-04T16:05:27.173Z,16.39
2022-11-04T16:07:59.482Z,16.31
2022-11-04T16:10:36.898Z,16.19
2022-11-04T16:13:23.295Z,16.15
2022-11-04T16:15:59.254Z,16.09
2022-11-04T16:18:43.565Z,16.02
2022-11-04T16:21:23.341Z,15.98
2022-11-04T16:24:01.273Z,15.87
2022-11-04T16:26:34.970Z,15.81
2022-11-04T16:29:07.528Z,15.77
2022-11-04T16:31:37.234Z,15.71
2022-11-04T16:34:11.579Z,15.54
2022-11-04T16:36:39.557Z,15.54
2022-11-04T16:39:08.951Z,15.35
2022-11-04T16:41:40.788Z,15.39
2022-11-04T16:44:18.966Z,15.25
2022-11-04T16:46:46.609Z,15.26
2022-11-04T16:49:19.937Z,15.08
2022-11-04T16:52:09.853Z,15.02
2022-11-04T16:54:37.780Z,14.91
2022-11-04T16:57:09.199Z,14.83
2022-11-04T16:59:36.914Z,14.82
2022-11-04T17:02:21.127Z,14.73
2022-11-04T17:04:49.321Z,14.81
2022-11-04T17:07:17.541Z,14.76
2022-11-04T17:09:45.621Z,14.68
2022-11-04T17:12:14.123Z,14.47
2022-11-04T17:14:41.768Z,14.48
2022-11-04T17:17:11.150Z,14.36
2022-11-04T17:19:39.219Z,14.36
2022-11-04T17:22:08.509Z,14.22
2022-11-04T17:24:36.137Z,14.16
2022-11-04T17:27:04.643Z,14.04
2022-11-04T17:29:37.376Z,14.11
2022-11-04T17:32:05.097Z,14.00
2022-11-04T17:34:33.010Z,14.03
2022-11-04T17:37:01.654Z,13.85
2022-11-04T17:39:29.601Z,13.66
2022-11-04T17:42:16.656Z,13.59
2022-11-04T17:44:45.101Z,13.72
2022-11-04T17:47:13.274Z,13.70
2022-11-04T17:49:41.564Z,13.72
2022-11-04T17:52:09.631Z,13.62
2022-11-04T17:54:37.258Z,13.73
2022-11-04T17:57:05.125Z,13.69
2022-11-04T17:59:36.682Z,13.55
2022-11-04T18:02:04.561Z,13.52
2022-11-04T18:04:32.669Z,13.55
2022-11-04T18:07:03.053Z,13.58
2022-11-04T18:09:33.762Z,13.56
2022-11-04T18:12:19.720Z,13.49
2022-11-04T18:14:47.263Z,13.56
2022-11-04T18:17:14.763Z,13.51
2022-11-04T18:19:42.990Z,13.43
2022-11-04T18:22:11.008Z,13.34
2022-11-04T18:24:38.788Z,13.27
2022-11-04T18:27:06.345Z,13.22
2022-11-04T18:29:34.565Z,13.17
2022-11-04T18:32:02.154Z,13.12
2022-11-04T18:34:29.985Z,13.12
2022-11-04T18:36:58.236Z,13.06
2022-11-04T18:39:26.214Z,13.22
2022-11-04T18:41:54.401Z,13.22
2022-11-04T18:44:22.656Z,13.18
2022-11-04T18:46:50.486Z,13.13
2022-11-04T18:49:18.480Z,13.09
2022-11-04T18:51:46.417Z,13.05
2022-11-04T18:54:15.127Z,13.06
2022-11-04T18:56:42.955Z,13.08
2022-11-04T18:59:13.024Z,13.05
2022-11-04T19:01:42.198Z,12.96
2022-11-04T19:04:10.415Z,12.92
2022-11-04T19:06:42.604Z,12.80
2022-11-04T19:09:45.561Z,12.84
2022-11-04T19:12:19.347Z,12.72
2022-11-04T19:14:47.208Z,12.56
2022-11-04T19:17:14.996Z,12.47
2022-11-04T19:19:43.092Z,12.42
2022-11-04T19:22:11.811Z,12.39
2022-11-04T19:24:39.708Z,12.47
2022-11-04T19:27:07.504Z,12.28
2022-11-04T19:29:35.274Z,12.41
2022-11-04T19:32:03.581Z,12.23
2022-11-04T19:34:31.293Z,12.28
2022-11-04T19:36:58.855Z,12.31
2022-11-04T19:39:26.406Z,12.24
2022-11-04T19:42:12.629Z,12.25
2022-11-04T19:44:41.343Z,12.27
2022-11-04T19:47:09.811Z,12.25
2022-11-04T19:49:37.519Z,12.28
2022-11-04T19:52:05.164Z,12.19
2022-11-04T19:54:33.135Z,12.20
2022-11-04T19:57:01.246Z,12.20
2022-11-04T19:59:29.161Z,12.12
2022-11-04T20:01:56.900Z,12.05
2022-11-04T20:04:24.879Z,12.00
2022-11-04T20:06:52.503Z,12.04
2022-11-04T20:09:22.344Z,11.91
2022-11-04T20:12:08.980Z,11.83
2022-11-04T20:14:36.925Z,11.89
2022-11-04T20:17:06.770Z,12.02
2022-11-04T20:19:35.368Z,12.10
2022-11-04T20:22:03.785Z,12.11
2022-11-04T20:24:31.351Z,12.05
2022-11-04T20:26:59.413Z,12.00
2022-11-04T20:29:27.089Z,12.07
2022-11-04T20:31:54.627Z,12.02
2022-11-04T20:34:22.556Z,11.93
2022-11-04T20:36:51.130Z,11.90
2022-11-04T20:39:20.384Z,11.86
2022-11-04T20:41:48.300Z,11.82
2022-11-04T20:44:16.744Z,11.98
2022-11-04T20:46:45.073Z,11.94
2022-11-04T20:49:13.483Z,11.77
2022-11-04T20:51:50.222Z,11.63
2022-11-04T20:54:20.950Z,11.65
2022-11-04T20:56:48.463Z,11.65
2022-11-04T20:59:18.336Z,11.69
2022-11-04T21:01:47.510Z,11.78
2022-11-04T21:04:18.975Z,11.73
2022-11-04T21:06:48.654Z,11.65
2022-11-04T21:09:19.384Z,11.68
2022-11-04T21:11:47.338Z,11.74
2022-11-04T21:14:16.660Z,11.65
2022-11-04T21:16:44.760Z,11.59
2022-11-04T21:19:13.413Z,11.62
2022-11-04T21:21:42.402Z,11.67
2022-11-04T21:24:13.584Z,11.66
2022-11-04T21:26:41.830Z,11.74
2022-11-04T21:29:14.181Z,11.75
2022-11-04T21:31:42.091Z,11.72
2022-11-04T21:34:10.642Z,11.67
2022-11-04T21:36:39.308Z,11.73
2022-11-04T21:39:07.558Z,11.81
2022-11-04T21:41:37.425Z,11.77
2022-11-04T21:44:11.275Z,11.76
2022-11-04T21:46:38.691Z,11.63
2022-11-04T21:49:06.338Z,11.57
2022-11-04T21:51:34.645Z,11.51
2022-11-04T21:54:06.376Z,11.57
2022-11-04T21:56:35.227Z,11.65
2022-11-04T21:59:04.856Z,11.48
2022-11-04T22:01:33.288Z,11.57
2022-11-04T22:04:02.192Z,11.50
2022-11-04T22:06:35.283Z,11.44
2022-11-04T22:09:09.366Z,11.39
2022-11-04T22:11:39.461Z,11.48
2022-11-04T22:14:08.494Z,11.26
2022-11-04T22:16:38.797Z,11.21
2022-11-04T22:19:10.240Z,11.29
2022-11-04T22:21:40.463Z,11.22
2022-11-04T22:24:18.206Z,11.19
2022-11-04T22:26:47.663Z,11.23
2022-11-04T22:29:15.880Z,11.19
2022-11-04T22:31:44.265Z,11.06
2022-11-04T22:34:11.912Z,10.99
2022-11-04T22:36:39.894Z,11.00
2022-11-04T22:39:11.985Z,10.91
2022-11-04T22:41:43.805Z,10.96
2022-11-04T22:44:11.743Z,11.00
2022-11-04T22:46:39.268Z,11.03
2022-11-04T22:49:07.195Z,10.97
2022-11-04T22:51:35.502Z,10.88
2022-11-04T22:54:08.174Z,10.92
2022-11-04T22:56:36.886Z,10.91
2022-11-04T22:59:04.628Z,10.82
2022-11-04T23:01:33.930Z,10.84
2022-11-04T23:04:02.791Z,10.90
2022-11-04T23:06:31.224Z,10.91
2022-11-04T23:09:00.688Z,10.81
2022-11-04T23:11:49.393Z,10.63
2022-11-04T23:14:39.348Z,10.62
2022-11-04T23:17:39.807Z,10.61
2022-11-04T23:20:14.749Z,10.60
2022-11-04T23:23:00.923Z,10.56
2022-11-04T23:25:28.607Z,10.77
2022-11-04T23:28:15.770Z,10.85
2022-11-04T23:30:46.918Z,10.73
2022-11-04T23:33:15.994Z,10.64
2022-11-04T23:36:08.217Z,10.58
2022-11-04T23:38:35.818Z,10.77
2022-11-04T23:41:25.274Z,10.76
2022-11-04T23:43:53.549Z,10.62
2022-11-04T23:46:42.942Z,10.54
2022-11-04T23:49:14.783Z,10.54
2022-11-04T23:52:01.541Z,10.56
2022-11-04T23:54:48.696Z,10.42
2022-11-04T23:57:37.454Z,10.43
